Home > Products > Valid Products > MTR

000
SAUS43 KAPX 301655
MTRAPN
METAR KAPN 301654Z AUTO 32009KT 6SM UP OVC024 M13/M17 A3047 RMK AO2
UPB52 SLP334 P0000 T11331172





000
SAUS43 KAPX 301555
MTRAPN
METAR KAPN 301554Z AUTO 34011KT 10SM OVC022 M14/M18 A3047 RMK AO2
SLP333 T11391178





000
SAUS43 KAPX 301537
MTRAPN
SPECI KAPN 301535Z AUTO 36012KT 10SM BKN024 M14/M18 A3046 RMK AO2
T11391183





000
SAUS43 KAPX 301455
MTRAPN
METAR KAPN 301454Z AUTO 35014G18KT 10SM SCT018 M15/M18 A3044 RMK AO2
SNE15 SLP325 P0000 60000 T11501183 51022





000
SAUS43 KAPX 301420
MTRAPN
SPECI KAPN 301419Z AUTO 34014KT 3SM BLSN OVC018 M15/M18 A3044 RMK
AO2 SNE15 P0000 T11501183





000
SAUS43 KAPX 301402
MTRAPN
SPECI KAPN 301401Z AUTO 34012KT 2SM -SN BR OVC017 M15/M17 A3043 RMK
AO2 VIS 1 1/2V3 P0000 T11501172





000
SAUS43 KAPX 301355
MTRAPN
METAR KAPN 301354Z AUTO 32012G19KT 3SM -SN BR OVC017 M15/M17 A3043
RMK AO2 UPB33E35SNE33B35 SLP321 P0000 T11501172





000
SAUS43 KAPX 301331
MTRAPN
SPECI KAPN 301329Z AUTO 34014G21KT 3SM -SN OVC017 M15/M18 A3042 RMK
AO2 P0000 T11501178





000
SAUS43 KAPX 301313
MTRAPN
SPECI KAPN 301311Z AUTO 32010G18KT 2SM -SN BKN019 OVC024 M14/M17
A3042 RMK AO2 VIS 1 1/4V4 P0000 T11441172





000
SAUS43 KAPX 301255
MTRAPN
METAR KAPN 301254Z AUTO 34016KT 3SM -SN OVC019 M14/M18 A3041 RMK AO2
SLP313 P0000 T11441178





000
SAUS43 KAPX 301155
MTRAPN
METAR KAPN 301154Z AUTO 34014G23KT 4SM -SN OVC017 M14/M17 A3038 RMK
AO2 SLP300 P0001 60002 70038 T11391172 11106 21144 51036





000
SAUS43 KAPX 301150
MTRAPN
SPECI KAPN 301149Z AUTO 34016G23KT 3SM -SN BKN017 OVC027 M14/M17
A3037 RMK AO2 P0001





000
SAUS43 KAPX 301145
MTRAPN
SPECI KAPN 301144Z AUTO 33016G22KT 1 3/4SM -SN BKN017 OVC027 M14/M17
A3037 RMK AO2 VIS 1V4 P0001 T11391167





000
SAUS43 KAPX 301138
MTRAPN
SPECI KAPN 301135Z AUTO 33012KT 2 1/2SM -SN BKN015 BKN022 OVC027
M14/M17 A3037 RMK AO2 VIS 1 1/2V4 P0001 T11391167





000
SAUS43 KAPX 301128
MTRAPN
SPECI KAPN 301127Z AUTO 34013G23KT 3SM -SN SCT010 BKN017 OVC027
M14/M17 A3036 RMK AO2 P0001 T11391172





000
SAUS43 KAPX 301116
MTRAPN
SPECI KAPN 301115Z AUTO 34017G20KT 2SM -SN BKN010 BKN017 OVC021
M14/M17 A3036 RMK AO2 P0001 T11391167





000
SAUS43 KAPX 301102
MTRAPN
SPECI KAPN 301101Z AUTO 34009KT 3/4SM -SN BR VV010 M14/M16 A3035 RMK
AO2 P0000 T11391156





000
SAUS43 KAPX 301055
MTRAPN
METAR KAPN 301054Z AUTO 34009KT 1SM -SN BR VV010 M14/M16 A3034 RMK
AO2 SLP288 P0001 T11391156





000
SAUS43 KAPX 301041
MTRAPN
SPECI KAPN 301040Z AUTO 33013KT 1SM -SN VV010 M13/M16 A3034 RMK AO2
P0001 T11331161





000
SAUS43 KAPX 301032
MTRAPN
SPECI KAPN 301031Z AUTO 34012KT 3/4SM -SN BR VV009 M13/M16 A3033 RMK
AO2 P0001 T11331156





000
SAUS43 KAPX 301003
MTRAPN
SPECI KAPN 301002Z AUTO 33013G21KT 3/4SM -SN BR VV011 M13/M16 A3031
RMK AO2 P0000 T11331156





000
SAUS43 KAPX 300955
MTRAPN
METAR KAPN 300954Z AUTO 32013KT 1SM -SN BR VV011 M13/M16 A3031 RMK
AO2 SLP277 P0000 T11331156





000
SAUS43 KAPX 300936
MTRAPN
SPECI KAPN 300935Z AUTO 32012KT 1SM -SN BR VV010 M13/M16 A3029 RMK
AO2 P0000 T11331156





000
SAUS43 KAPX 300920
MTRAPN
SPECI KAPN 300918Z AUTO 32009KT 3/4SM -SN BR VV009 M13/M15 A3028 RMK
AO2 P0000 T11331150





000
SAUS43 KAPX 300908
MTRAPN
SPECI KAPN 300907Z AUTO 33012KT 1SM -SN BR BKN013 OVC019 M13/M16
A3027 RMK AO2 P0000 T11331156





000
SAUS43 KAPX 300855
MTRAPN
METAR KAPN 300854Z AUTO 33016G22KT 1 3/4SM -SN BKN015 OVC021 M13/M16
A3027 RMK AO2 VIS 3/4 RY 19 SLP263 P0000 60000 T11281156 51039





000
SAUS43 KAPX 300822
MTRAPN
SPECI KAPN 300820Z AUTO 32017G25KT 1SM -SN BKN018 OVC024 M13/M16
A3025 RMK AO2 P0000 T11281156





000
SAUS43 KAPX 300803
MTRAPN
SPECI KAPN 300802Z AUTO 33013G20KT 2SM -SN SCT016 OVC023 M12/M15
A3024 RMK AO2 P0000 T11221150





000
SAUS43 KAPX 300755
MTRAPN
METAR KAPN 300754Z AUTO 34013G25KT 3SM -SN SCT016 OVC027 M12/M15
A3023 RMK AO2 PK WND 32028/0744 VIS 2 RY 19 SLP251 P0000 T11221150





000
SAUS43 KAPX 300749
MTRAPN
SPECI KAPN 300748Z AUTO 33014G28KT 3SM -SN BKN018 OVC025 M12/M16
A3023 RMK AO2 PK WND 32028/0744 VIS 1 1/2 RY 19 P0000





000
SAUS43 KAPX 300737
MTRAPN
SPECI KAPN 300736Z AUTO 32017G22KT 1 1/2SM -SN BR BKN016 OVC026
M12/M14 A3022 RMK AO2 PK WND 31027/0702 P0000 T11221144





000
SAUS43 KAPX 300724
MTRAPN
SPECI KAPN 300723Z AUTO 33016G27KT 1 1/4SM -SN BKN012 OVC020 M12/M15
A3021 RMK AO2 PK WND 31027/0702 P0000 T11171150





000
SAUS43 KAPX 300700
MTRAPN
SPECI KAPN 300659Z AUTO 33016G23KT 3/4SM -SN BR VV012 M12/M14 A3020
RMK AO2 P0000 T11171139





000
SAUS43 KAPX 300655
MTRAPN
METAR KAPN 300654Z AUTO 32015G23KT 1 1/4SM -SN BR BKN015 OVC028
M12/M14 A3019 RMK AO2 PK WND 32029/0611 SLP237 P0000 T11171139





000
SAUS43 KAPX 300556
MTRAPN
METAR KAPN 300554Z AUTO 33018G23KT 1 1/2SM -SN BKN017 OVC025 M11/M13
A3015 RMK AO2 PK WND 33030/0535 SLP223 P0000 60000 T11061133 11022
21106 52049





000
SAUS43 KAPX 300547
MTRAPN
SPECI KAPN 300546Z AUTO 32015G28KT 1SM -SN BKN015 OVC023 M11/M13
A3014 RMK AO2 PK WND 33030/0535 P0000 T11061133





000
SAUS43 KAPX 300540
MTRAPN
SPECI KAPN 300539Z AUTO 33018G30KT 3/4SM -SN BR VV013 M11/M13 A3013
RMK AO2 PK WND 33030/0535 P0000 T11061128





000
SAUS43 KAPX 300533
MTRAPN
SPECI KAPN 300532Z AUTO 33021G28KT 1SM -SN VV014 M10/M13 A3013 RMK
AO2 PK WND 32028/0532 P0000 T11001128





000
SAUS43 KAPX 300458
MTRAPN
SPECI KAPN 300457Z AUTO 32016G25KT 3/4SM -SN VV014 M09/M12 A3010 RMK
AO2 P0000 T10941122





000
SAUS43 KAPX 300455
MTRAPN
METAR KAPN 300454Z AUTO 32017G26KT 1SM -SN VV015 M09/M12 A3010 RMK
AO2 PK WND 31026/0425 SLP206 P0000 T10941122 410111094





000
SAUS43 KAPX 300412
MTRAPN
SPECI KAPN 300411Z AUTO 31012G23KT 1 1/2SM -SN BR BKN023 OVC029
M09/M11 A3006 RMK AO2 P0000 T10891111





000
SAUS43 KAPX 300403
MTRAPN
SPECI KAPN 300402Z AUTO 31016G23KT 2SM -SN BKN021 OVC029 M08/M12
A3006 RMK AO2 P0000 T10831117





000
SAUS43 KAPX 300355
MTRAPN
METAR KAPN 300354Z AUTO 32015G28KT 3SM -SN BKN021 OVC029 M08/M12
A3005 RMK AO2 PK WND 32028/0349 SLP189 P0000 T10831117





000
SAUS43 KAPX 300348
MTRAPN
SPECI KAPN 300347Z AUTO 31015G23KT 4SM -SN BKN021 BKN028 OVC034
M08/M11 A3005 RMK AO2 PK WND 33028/0317 P0000 T10781111





000
SAUS43 KAPX 300341
MTRAPN
SPECI KAPN 300340Z AUTO 32017G26KT 2 1/2SM -SN OVC020 M08/M11 A3004
RMK AO2 PK WND 33028/0317 P0000 T10781111





000
SAUS43 KAPX 300331
MTRAPN
SPECI KAPN 300330Z AUTO 32020G26KT 4SM -SN SCT015 OVC022 M07/M11
A3003 RMK AO2 PK WND 33028/0317 P0000 T10721106





000
SAUS43 KAPX 300309
MTRAPN
SPECI KAPN 300308Z AUTO 32013G21KT 2 1/2SM -SN OVC018 M06/M09 A3002
RMK AO2 PRESRR P0000 T10611089





000
SAUS43 KAPX 300255
MTRAPN
METAR KAPN 300254Z AUTO 30014G23KT 3SM -SN OVC018 M06/M09 A3000 RMK
AO2 PK WND 31026/0241 SLP172 P0000 60000 T10611089 51038





000
SAUS43 KAPX 300155
MTRAPN
METAR KAPN 300154Z AUTO 29008G22KT 6SM -SN OVC019 M05/M08 A2996 RMK
AO2 PK WND 32027/0141 UPB22E23SNE18B28 SLP159 P0000 T10501083





000
SAUS43 KAPX 300055
MTRAPN
METAR KAPN 300054Z AUTO 30013G23KT 9SM -SN OVC015 M04/M07 A2993 RMK
AO2 SNB52 SLP147 P0000 T10391067





000
SAUS43 KAPX 292355
MTRAPN
METAR KAPN 292354Z AUTO 30014G20KT 10SM OVC019 M02/M05 A2989 RMK AO2
UPB2259E04FZRAE2259 SLP132 P0000 60002 I1000 I6001 T10221050 11011
21033 53042





000
SAUS43 KAPX 292329
MTRAPN
SPECI KAPN 292328Z AUTO 31007G19KT 10SM OVC015 M02/M04 A2986 RMK AO2
UPB2259E04FZRAE2259 P0000 I1000 T10171039





000
SAUS43 KAPX 292306
MTRAPN
SPECI KAPN 292305Z AUTO 31008G17KT 10SM OVC014 M01/M03 A2985 RMK AO2
UPB2259E04FZRAE2259 P0000 I1000 T10111033





000
SAUS43 KAPX 292255
MTRAPN
METAR KAPN 292254Z AUTO 31014G23KT 10SM -FZRA OVC014 M01/M03 A2984
RMK AO2 UPB04E33FZRAB33 SLP114 P0001 I1000 T10111033





000
SAUS43 KAPX 292236
MTRAPN
SPECI KAPN 292235Z AUTO 31009G19KT 3SM -FZRA BR OVC011 M01/M02 A2982
RMK AO2 UPB04E33FZRAB33 P0001 I1000 T10111022





000
SAUS43 KAPX 292155
MTRAPN
METAR KAPN 292154Z AUTO 30007KT 3SM BR OVC009 M02/M03 A2980 RMK AO2
UPB35E39FZRAB39E50 CIG 007V012 SLP100 P0000 I1001 T10171028





000
SAUS43 KAPX 292151
MTRAPN
SPECI KAPN 292150Z AUTO 29007KT 3SM BR OVC009 M02/M03 A2980 RMK AO2
UPB35E39FZRAB39E50 CIG 007V012 P0000 I1001





000
SAUS43 KAPX 292147
MTRAPN
SPECI KAPN 292145Z AUTO 29005KT 2 1/2SM -FZRA BR OVC009 M02/M03
A2979 RMK AO2 UPB35E39FZRAB39 CIG 007V012 P0000 I1001 T10171028





000
SAUS43 KAPX 292131
MTRAPN
SPECI KAPN 292130Z AUTO 29006KT 2 1/2SM BR BKN009 OVC013 M02/M03
A2978 RMK AO2 CIG 007V011 I1000 T10171028





000
SAUS43 KAPX 292120
MTRAPN
SPECI KAPN 292118Z AUTO 29007KT 4SM BR OVC013 M02/M03 A2978 RMK AO2
T10171033





000
SAUS43 KAPX 292055
MTRAPN
METAR KAPN 292054Z AUTO 30007KT 9SM BKN017 OVC038 M01/M04 A2976 RMK
AO2 SLP088 60001 T10111039 53003





000
SAUS43 KAPX 292003
MTRAPN
SPECI KAPN 292002Z AUTO 30007KT 9SM OVC015 M02/M04 A2974 RMK AO2
T10171044





000
SAUS43 KAPX 291955
MTRAPN
METAR KAPN 291954Z AUTO VRB05KT 9SM OVC013 M02/M04 A2974 RMK AO2
SLP080 T10171044





000
SAUS43 KAPX 291921
MTRAPN
SPECI KAPN 291920Z AUTO 32005KT 9SM BKN014 OVC020 M02/M04 A2974 RMK
AO2 T10221044





000
SAUS43 KAPX 291855
MTRAPN
METAR KAPN 291854Z AUTO 31007KT 7SM SCT012 OVC022 M02/M05 A2974 RMK
AO2 SNE50 SLP080 P0001 T10221050





000
SAUS43 KAPX 291826
MTRAPN
SPECI KAPN 291825Z AUTO 31007KT 4SM -SN BR FEW009 BKN013 OVC028
M03/M05 A2975 RMK AO2 P0001 T10281050





000
SAUS43 KAPX 291818
MTRAPN
SPECI KAPN 291817Z AUTO 31008KT 3SM -SN BR BKN009 BKN027 OVC036
M03/M05 A2975 RMK AO2 P0001 T10281050





000
SAUS43 KAPX 291814
MTRAPN
SPECI KAPN 291813Z AUTO 31008KT 2 1/2SM -SN BR SCT009 BKN027 OVC037
M03/M05 A2975 RMK AO2 P0001 T10281050





000
SAUS43 KAPX 291758
MTRAPN
METAR KAPN 291754Z AUTO 30005KT 1 1/2SM -SN BR SCT008 BKN029 OVC037
M03/M05 A2975 RMK AO2 SLP085 P0001 60034 I6000 T10331050 11033 21050
58009





000
SAUS43 KAPX 291746
MTRAPN
SPECI KAPN 291739Z AUTO 32005KT 1 1/2SM -SN BR SCT008 BKN039 OVC050
M03/M05 A2976 RMK AO2 P0001 T10331050





000
SAUS43 KAPX 291724
MTRAPN
SPECI KAPN 291717Z AUTO VRB04KT 2 1/2SM -SN BR SCT008 OVC049 M04/M05
A2977 RMK AO2 P0001 T10391050





000
SAUS43 KAPX 291702
MTRAPN
METAR KAPN 291654Z AUTO VRB03KT 3SM -SN BR OVC008 M04/M06 A2977 RMK
AO2 UPB1556E00FZRAB00E17SNE1556B46 CIG 006V011 SLP092 P0000 I1000
T10391056





000
SAUS43 KAPX 291625
MTRAPN
SPECI KAPN 291617Z AUTO 00000KT 4SM BR BKN007 OVC016 M04/M06 A2978
RMK AO2 UPB1556E00FZRAB00E17SNE1556 CIG 005V011 P0000 I1000
T10441056





000
SAUS43 KAPX 291614
MTRAPN
SPECI KAPN 291607Z AUTO 27003KT 2SM -FZRA BR BKN008 OVC016 M04/M05
A2978 RMK AO2 UPB1556E00FZRAB00SNE1556 CIG 005V011 P0000 I1000
T10441050





000
SAUS43 KAPX 291601
MTRAPN
METAR KAPN 291554Z AUTO 28003KT 1 3/4SM -SN BR OVC018 M04/M06 A2978
RMK AO2 SLP095 P0004 T10441056





000
SAUS43 KAPX 291546
MTRAPN
SPECI KAPN 291539Z AUTO 00000KT 1SM -SN BR OVC018 M04/M06 A2978 RMK
AO2 P0003 T10441056





000
SAUS43 KAPX 291522
MTRAPN
SPECI KAPN 291515Z AUTO 23003KT 3/4SM -SN BR OVC022 M04/M06 A2978
RMK AO2 P0001 T10441056





000
SAUS43 KAPX 291501
MTRAPN
METAR KAPN 291454Z AUTO 00000KT 1SM -SN BR OVC024 M05/M06 A2978 RMK
AO2 SLP095 P0009 60029 T10501056 56013





000
SAUS43 KAPX 291452
MTRAPN
SPECI KAPN 291445Z AUTO 00000KT 1SM -SN BR VV017 M05/M06 A2978 RMK
AO2 P0009 T10501056





000
SAUS43 KAPX 291402
MTRAPN
METAR KAPN 291354Z AUTO 18005KT 1/4SM +SN FZFG VV008 M05/M06 A2978
RMK AO2 SLP097 P0009 T10501061





000
SAUS43 KAPX 291351
MTRAPN
SPECI KAPN 291344Z AUTO 18004KT 1/4SM SN FZFG VV009 M05/M06 A2979
RMK AO2 P0007 T10501061





000
SAUS43 KAPX 291341
MTRAPN
SPECI KAPN 291333Z AUTO 18004KT 1/4SM SN FZFG VV009 M05/M06 A2979
RMK AO2 P0006 T10501061





000
SAUS43 KAPX 291329
MTRAPN
SPECI KAPN 291321Z AUTO 19004KT 1/2SM SN FZFG VV008 M05/M06 A2979
RMK AO2 P0005 T10501056





000
SAUS43 KAPX 291312
MTRAPN
SPECI KAPN 291304Z AUTO 17005KT 1/2SM SN FZFG VV010 M05/M06 A2979
RMK AO2 P0002 T10501056





000
SAUS43 KAPX 291301
MTRAPN
METAR KAPN 291254Z AUTO 18005KT 1 1/2SM -SN BR OVC013 M05/M06 A2980
RMK AO2 SLP101 P0011 T10501061





000
SAUS43 KAPX 291252
MTRAPN
SPECI KAPN 291245Z AUTO 17005KT 1SM -SN BR VV012 M05/M06 A2980 RMK
AO2 P0011 T10501061





000
SAUS43 KAPX 291155
MTRAPN
METAR KAPN 291154Z AUTO 17005KT 1/2SM SN FZFG VV005 M05/M06 A2982
RMK AO2 SLP108 P0007 60007 70007 T10501061 11033 21050 56027





000
SAUS43 KAPX 291145
MTRAPN
SPECI KAPN 291144Z AUTO 16006KT 1/2SM SN FZFG VV006 M05/M06 A2982
RMK AO2 P0005 T10501061





000
SAUS43 KAPX 291131
MTRAPN
SPECI KAPN 291130Z AUTO 18005KT 1/2SM SN FZFG VV014 M05/M06 A2983
RMK AO2 P0002 T10501061





000
SAUS43 KAPX 291120
MTRAPN
SPECI KAPN 291119Z AUTO 18008KT 1 3/4SM -SN OVC025 M04/M07 A2983 RMK
AO2 P0001 T10441072





000
SAUS43 KAPX 291110
MTRAPN
SPECI KAPN 291109Z AUTO 19009KT 2 1/2SM -SN BKN031 OVC050 M04/M08
A2983 RMK AO2 VIS 1 3/4 RY 19 P0000 T10441078





000
SAUS43 KAPX 291055
MTRAPN
METAR KAPN 291054Z AUTO 19010KT 4SM -SN SCT033 OVC050 M04/M09 A2984
RMK AO2 VIS 2 1/2 RY 19 SNB22 SLP116 P0000 T10391089





000
SAUS43 KAPX 290955
MTRAPN
METAR KAPN 290954Z AUTO 17011KT 10SM OVC060 M04/M09 A2986 RMK AO2
SLP123 T10391094





000
SAUS43 KAPX 290855
MTRAPN
METAR KAPN 290854Z AUTO 17010KT 10SM OVC075 M04/M11 A2990 RMK AO2
SLP136 T10391106 56039





000
SAUS43 KAPX 290755
MTRAPN
METAR KAPN 290754Z AUTO 16010KT 10SM BKN055 OVC075 M04/M11 A2994 RMK
AO2 SLP147 T10391111





000
SAUS43 KAPX 290655
MTRAPN
METAR KAPN 290654Z AUTO 16012KT 10SM OVC090 M03/M11 A2998 RMK AO2
SLP162 T10331106





000
SAUS43 KAPX 290555
MTRAPN
METAR KAPN 290554Z AUTO 16009KT 10SM FEW060 BKN090 OVC100 M03/M11
A3002 RMK AO2 SLP176 T10331106 11033 21039 58024





000
SAUS43 KAPX 290455
MTRAPN
METAR KAPN 290454Z AUTO 15008KT 10SM OVC090 M03/M11 A3006 RMK AO2
SLP189 T10331106 410171206





000
SAUS43 KAPX 290355
MTRAPN
METAR KAPN 290354Z AUTO 16006KT 10SM OVC100 M04/M10 A3007 RMK AO2
SLP195 T10391100





000
SAUS43 KAPX 290255
MTRAPN
METAR KAPN 290254Z AUTO 16009KT 10SM OVC100 M04/M11 A3009 RMK AO2
SLP204 T10391106 58019





000
SAUS43 KAPX 290155
MTRAPN
METAR KAPN 290154Z AUTO 16009KT 10SM OVC095 M03/M11 A3011 RMK AO2
SLP213 T10331106





000
SAUS43 KAPX 290055
MTRAPN
METAR KAPN 290054Z AUTO 16010KT 10SM OVC100 M03/M11 A3014 RMK AO2
SLP222 T10331106





000
SAUS43 KAPX 290055
MTRAPN
METAR KAPN 290054Z AUTO 16010KT 10SM OVC100 M03/M11 A3014 RMK AO2
SLP222 T10331106





000
SAUS43 KAPX 282355
MTRAPN
METAR KAPN 282354Z AUTO 15008KT 10SM OVC110 M03/M12 A3015 RMK AO2
SLP225 T10331117 11017 21044 56012





000
SAUS43 KAPX 282255
MTRAPN
METAR KAPN 282254Z AUTO 18008KT 10SM CLR M03/M12 A3016 RMK AO2
SLP230 T10281122





000
SAUS43 KAPX 282155
MTRAPN
METAR KAPN 282154Z AUTO 12007KT 10SM CLR M03/M09 A3017 RMK AO2
SLP231 T10281094





000
SAUS43 KAPX 282055
MTRAPN
METAR KAPN 282054Z AUTO 11008KT 10SM CLR M03/M11 A3018 RMK AO2
SLP237 T10281111 56023





000
SAUS43 KAPX 281955
MTRAPN
METAR KAPN 281954Z AUTO 10006KT 10SM CLR M02/M14 A3020 RMK AO2
SLP242 T10221144





000
SAUS43 KAPX 281855
MTRAPN
METAR KAPN 281854Z AUTO 17004KT 10SM CLR M03/M15 A3023 RMK AO2
SLP251 T10331150





000
SAUS43 KAPX 281755
MTRAPN
METAR KAPN 281754Z AUTO 20007KT 10SM CLR M04/M17 A3025 RMK AO2
SLP261 T10441172 11044 21206





000
SAUS43 KAPX 281655
MTRAPN
METAR KAPN 281654Z AUTO 00000KT 10SM CLR M06/M16 A3028 RMK AO2
SLP271 T10561161





000
SAUS43 KAPX 281601
MTRAPN
METAR KAPN 281554Z AUTO 00000KT 10SM CLR M08/M14 A3030 RMK AO2
SLP276 T10781144





000
SAUS43 KAPX 281455
MTRAPN
METAR KAPN 281454Z AUTO 00000KT 10SM CLR M14/M16 A3030 RMK AO2
SLP280 T11391161 58000





000
SAUS43 KAPX 281255
MTRAPN
METAR KAPN 281254Z AUTO 00000KT 10SM CLR M19/M22 A3031 RMK AO2
SLP283 T11941222





000
SAUS43 KAPX 281155
MTRAPN
METAR KAPN 281154Z AUTO 00000KT 10SM CLR M19/M22 A3030 RMK AO2
SLP280 I6000 T11891222 11178 21206 51011 $





000
SAUS43 KAPX 281055
MTRAPN
METAR KAPN 281054Z AUTO 00000KT 10SM CLR M18/M21 A3030 RMK AO2
SLP278 T11831211





000
SAUS43 KAPX 280955
MTRAPN
METAR KAPN 280954Z AUTO 00000KT 10SM CLR M19/M22 A3028 RMK AO2
SLP273 T11941217





000
SAUS43 KAPX 280955
MTRAPN
METAR KAPN 280954Z AUTO 00000KT 10SM CLR M19/M22 A3028 RMK AO2
SLP273 T11941217





000
SAUS43 KAPX 280855
MTRAPN
METAR KAPN 280854Z AUTO 00000KT 10SM CLR M20/M23 A3027 RMK AO2
SLP267 I3000 T12001228 53011





000
SAUS43 KAPX 280755
MTRAPN
METAR KAPN 280754Z AUTO 00000KT 10SM CLR M20/M22 A3025 RMK AO2
SLP260 I1000 T12001222





000
SAUS43 KAPX 280655
MTRAPN
METAR KAPN 280654Z AUTO 00000KT 10SM CLR M19/M22 A3023 RMK AO2
SLP255 T11941217





000
SAUS43 KAPX 280655
MTRAPN
METAR KAPN 280654Z AUTO 00000KT 10SM CLR M19/M22 A3023 RMK AO2
SLP255 T11941217





000
SAUS43 KAPX 280555
MTRAPN
METAR KAPN 280554Z AUTO 00000KT 10SM CLR M19/M21 A3023 RMK AO2
SLP255 T11891211 11122 21189 58002





000
SAUS43 KAPX 280555
MTRAPN
METAR KAPN 280554Z AUTO 00000KT 10SM CLR M19/M21 A3023 RMK AO2
SLP255 T11891211 11122 21189 58002





000
SAUS43 KAPX 280455
MTRAPN
METAR KAPN 280454Z AUTO 00000KT 10SM CLR M18/M22 A3025 RMK AO2
SLP261 T11831217 410611189





000
SAUS43 KAPX 280355
MTRAPN
METAR KAPN 280354Z AUTO 00000KT 10SM CLR M18/M21 A3025 RMK AO2
SLP261 T11831211





000
SAUS43 KAPX 280355
MTRAPN
METAR KAPN 280354Z AUTO 00000KT 10SM CLR M18/M21 A3025 RMK AO2
SLP261 T11831211





000
SAUS43 KAPX 280255
MTRAPN
METAR KAPN 280254Z AUTO 00000KT 10SM CLR M18/M20 A3024 RMK AO2
SLP258 T11781200 58003





000
SAUS43 KAPX 280255
MTRAPN
METAR KAPN 280254Z AUTO 00000KT 10SM CLR M18/M20 A3024 RMK AO2
SLP258 T11781200 58003





000
SAUS43 KAPX 280155
MTRAPN
METAR KAPN 280154Z AUTO 00000KT 10SM CLR M16/M19 A3025 RMK AO2
SLP259 T11611189





000
SAUS43 KAPX 280055
MTRAPN
METAR KAPN 280054Z AUTO 00000KT 10SM CLR M14/M18 A3025 RMK AO2
SLP261 T11441178





000
SAUS43 KAPX 272355
MTRAPN
METAR KAPN 272354Z AUTO 36003KT 10SM CLR M13/M17 A3025 RMK AO2
SLP260 T11281167 11061 21128 52013





000
SAUS43 KAPX 272255
MTRAPN
METAR KAPN 272254Z AUTO 35006KT 10SM CLR M10/M16 A3024 RMK AO2
SLP256 T11001161





000
SAUS43 KAPX 272155
MTRAPN
METAR KAPN 272154Z AUTO 36008KT 10SM CLR M08/M15 A3022 RMK AO2
SLP246 T10781150





000
SAUS43 KAPX 272055
MTRAPN
METAR KAPN 272054Z AUTO 01007KT 10SM CLR M07/M14 A3021 RMK AO2
SLP243 T10671144 53001





000
SAUS43 KAPX 271955
MTRAPN
METAR KAPN 271954Z AUTO 35007KT 10SM CLR M07/M14 A3019 RMK AO2
SLP237 T10671144





000
SAUS43 KAPX 271855
MTRAPN
METAR KAPN 271854Z AUTO 05007KT 10SM CLR M07/M13 A3019 RMK AO2
SLP237 T10671133





000
SAUS43 KAPX 271755
MTRAPN
METAR KAPN 271754Z AUTO 01007KT 10SM CLR M07/M14 A3021 RMK AO2
SLP242 T10721144 11072 21161 50006





    US Dept of Commerce
    National Oceanic and Atmospheric Administration
    National Weather Service
    1325 East West Highway
    Silver Spring, MD 20910
    Page Author: NWS Internet Services Team
Disclaimer
Information Quality
Credits
Glossary
Privacy Policy
Freedom of Information Act (FOIA)
About Us
Career Opportunities